Time;durP1;ratioP1;P1;durP2;ratioP2;P2;SDS_P1;SDS_P2;PMS_P1;PMS_P2;Temp;Humidity;BMP_temperature;BMP_pressure;BME280_temperature;BME280_humidity;BME280_pressure;Samples;Min_cycle;Max_cycle;Signal;HPM_P1;HPM_P2
2024/04/16 00:01:36;;;;;;;8.05;5.18;;;;;;;4.67;100.00;99564.66;10785703;26;20105;-70
2024/04/16 00:06:33;;;;;;;8.27;5.85;;;;;;;4.62;100.00;99578.31;10790027;26;20018;-70
2024/04/16 00:11:30;;;;;;;8.35;5.50;;;;;;;4.64;100.00;99576.06;10801529;26;20010;-70
2024/04/16 00:16:28;;;;;;;8.70;6.22;;;;;;;4.64;100.00;99586.91;10795499;26;20001;-69
2024/04/16 00:21:25;;;;;;;7.70;5.80;;;;;;;4.64;100.00;99567.94;10852137;26;20000;-69
2024/04/16 00:26:22;;;;;;;7.88;5.60;;;;;;;4.62;100.00;99578.31;10857083;26;20005;-69
2024/04/16 00:31:19;;;;;;;8.55;6.22;;;;;;;4.59;100.00;99571.56;10868473;26;20124;-72
2024/04/16 00:36:16;;;;;;;11.60;6.68;;;;;;;4.64;100.00;99557.94;10861338;26;20001;-72
2024/04/16 00:41:13;;;;;;;12.50;6.22;;;;;;;4.68;100.00;99576.28;10862529;26;20079;-70
2024/04/16 00:46:13;;;;;;;10.80;6.07;;;;;;;4.60;100.00;99567.78;10846338;26;20423;-70
2024/04/16 00:51:10;;;;;;;8.63;5.47;;;;;;;4.62;100.00;99586.44;10854282;26;20001;-70
2024/04/16 00:56:08;;;;;;;8.25;5.45;;;;;;;4.60;100.00;99575.09;10832685;26;20013;-69
2024/04/16 01:01:05;;;;;;;8.90;4.60;;;;;;;4.58;100.00;99577.31;10853373;26;20021;-71
2024/04/16 01:06:03;;;;;;;7.07;5.32;;;;;;;4.65;100.00;99561.44;10859384;26;20048;-70
2024/04/16 01:11:00;;;;;;;7.50;4.53;;;;;;;4.60;100.00;99561.56;10852158;26;20119;-71
2024/04/16 01:15:57;;;;;;;5.13;3.95;;;;;;;4.59;100.00;99554.53;10871164;26;20457;-71
2024/04/16 01:20:54;;;;;;;7.55;3.83;;;;;;;4.62;100.00;99556.66;10843043;26;20005;-72
2024/04/16 01:25:52;;;;;;;6.57;4.05;;;;;;;4.57;100.00;99538.63;10835318;26;20076;-71
2024/04/16 01:30:49;;;;;;;5.97;4.10;;;;;;;4.47;100.00;99549.66;10871964;26;20080;-73
2024/04/16 01:35:46;;;;;;;7.78;4.07;;;;;;;4.58;100.00;99544.84;10856489;26;20029;-72
2024/04/16 01:40:43;;;;;;;6.18;3.83;;;;;;;4.59;100.00;99551.84;10884960;26;20016;-70
2024/04/16 01:45:40;;;;;;;5.63;3.92;;;;;;;4.56;100.00;99555.16;10846765;26;20465;-70
2024/04/16 01:50:37;;;;;;;7.25;4.30;;;;;;;4.48;100.00;99539.63;10854447;26;20021;-70
2024/04/16 01:55:35;;;;;;;5.82;4.32;;;;;;;4.57;100.00;99537.81;10847851;26;20095;-69
2024/04/16 02:00:32;;;;;;;5.75;4.53;;;;;;;4.70;100.00;99547.78;10848220;26;20005;-70
2024/04/16 02:05:29;;;;;;;7.93;4.90;;;;;;;4.73;100.00;99541.75;10856052;26;20005;-69
2024/04/16 02:10:26;;;;;;;9.65;4.43;;;;;;;4.69;100.00;99524.53;10865530;26;20005;-70
2024/04/16 02:15:23;;;;;;;6.50;4.47;;;;;;;4.71;100.00;99527.75;10858486;26;20006;-70
2024/04/16 02:20:21;;;;;;;6.63;5.10;;;;;;;4.69;100.00;99534.53;10857846;26;20016;-70
2024/04/16 02:25:18;;;;;;;6.72;4.70;;;;;;;4.73;100.00;99541.75;10852558;26;20099;-70
2024/04/16 02:30:15;;;;;;;8.30;5.63;;;;;;;4.67;100.00;99532.16;10847236;26;20023;-72
2024/04/16 02:35:12;;;;;;;11.23;5.30;;;;;;;4.69;100.00;99540.78;10852765;26;20016;-72
2024/04/16 02:40:10;;;;;;;13.50;5.88;;;;;;;4.64;100.00;99530.88;10852728;26;20068;-71
2024/04/16 02:45:07;;;;;;;6.10;5.05;;;;;;;4.71;100.00;99537.75;10807569;26;20355;-70
2024/04/16 02:50:04;;;;;;;8.93;5.50;;;;;;;4.77;100.00;99542.75;10775303;26;20143;-72
2024/04/16 02:55:01;;;;;;;8.45;6.13;;;;;;;4.81;100.00;99543.72;10836918;26;20001;-71
2024/04/16 02:59:59;;;;;;;9.30;5.65;;;;;;;4.76;100.00;99551.19;10864065;26;20341;-71
2024/04/16 03:04:56;;;;;;;10.05;5.88;;;;;;;4.83;100.00;99546.94;10783355;26;20006;-71
2024/04/16 03:09:53;;;;;;;8.25;5.68;;;;;;;4.82;100.00;99545.31;10789921;26;20029;-72
2024/04/16 03:14:53;;;;;;;6.38;5.20;;;;;;;4.78;100.00;99533.53;10779309;26;20010;-71
2024/04/16 03:19:50;;;;;;;12.00;5.28;;;;;;;4.76;100.00;99527.63;10764435;26;20014;-71
2024/04/16 03:24:51;;;;;;;7.40;5.63;;;;;;;4.77;100.00;99536.53;10833869;26;20082;-71
2024/04/16 03:29:48;;;;;;;9.85;6.15;;;;;;;4.69;100.00;99529.94;10769135;26;20006;-70
2024/04/16 03:34:45;;;;;;;7.95;5.45;;;;;;;4.67;100.00;99536.78;10786500;26;20017;-76
2024/04/16 03:39:42;;;;;;;6.95;5.13;;;;;;;4.75;100.00;99536.81;10787655;26;20034;-76
2024/04/16 03:44:39;;;;;;;9.65;5.80;;;;;;;4.81;100.00;99543.72;10860063;26;20001;-76
2024/04/16 03:49:36;;;;;;;7.63;5.95;;;;;;;4.81;100.00;99559.97;10849318;26;20000;-76
2024/04/16 03:54:34;;;;;;;5.88;4.80;;;;;;;4.85;100.00;99566.38;10780269;26;20001;-73
2024/04/16 04:04:50;;;;;;;9.30;6.25;;;;;;;4.91;100.00;99575.19;10774998;26;20349;-76
2024/04/16 04:09:48;;;;;;;9.90;6.35;;;;;;;4.97;100.00;99573.16;10774041;26;22392;-76
2024/04/16 04:14:45;;;;;;;10.73;6.20;;;;;;;4.99;100.00;99574.47;10792007;26;20005;-74
2024/04/16 04:19:42;;;;;;;5.82;5.22;;;;;;;5.02;100.00;99581.16;10771725;26;20005;-75
2024/04/16 04:24:39;;;;;;;5.88;4.80;;;;;;;4.97;100.00;99590.22;10762577;26;20009;-76
2024/04/16 04:29:38;;;;;;;5.53;4.18;;;;;;;4.99;100.00;99598.00;10755693;26;20730;-76
2024/04/16 04:34:35;;;;;;;6.93;3.70;;;;;;;4.98;100.00;99589.09;10766120;26;20006;-76
2024/04/16 04:39:33;;;;;;;4.57;3.60;;;;;;;4.97;100.00;99594.84;10761812;26;19997;-76
2024/04/16 04:44:30;;;;;;;4.97;3.83;;;;;;;5.03;100.00;99593.59;10820205;26;20005;-76
2024/04/16 04:49:27;;;;;;;7.53;5.07;;;;;;;5.04;100.00;99606.84;10767796;26;20461;-75
2024/04/16 04:54:24;;;;;;;8.43;5.68;;;;;;;5.05;100.00;99603.00;10780902;26;20002;-76
2024/04/16 04:59:21;;;;;;;10.48;6.13;;;;;;;5.18;100.00;99612.19;10768471;26;20005;-75
2024/04/16 05:04:18;;;;;;;10.07;5.63;;;;;;;5.20;100.00;99614.59;10836353;26;20020;-73
2024/04/16 05:09:15;;;;;;;10.40;5.80;;;;;;;5.17;100.00;99621.41;10830310;26;20012;-74
2024/04/16 05:14:13;;;;;;;8.15;5.90;;;;;;;5.19;100.00;99632.75;10834773;26;20030;-74
2024/04/16 05:19:10;;;;;;;7.90;6.35;;;;;;;5.21;100.00;99625.13;10833726;26;20037;-73
2024/04/16 05:24:09;;;;;;;11.25;6.70;;;;;;;5.22;100.00;99624.03;10839382;26;20019;-73
2024/04/16 05:29:06;;;;;;;9.13;6.63;;;;;;;5.15;100.00;99628.25;10829469;26;20004;-73
2024/04/16 05:34:04;;;;;;;9.35;7.10;;;;;;;5.21;100.00;99633.25;10828276;26;20092;-72
2024/04/16 05:39:01;;;;;;;7.43;6.50;;;;;;;5.21;100.00;99633.25;10833557;26;20016;-73
2024/04/16 05:43:58;;;;;;;9.90;6.68;;;;;;;5.20;100.00;99628.16;10819170;26;20005;-73
2024/04/16 05:48:55;;;;;;;7.40;6.55;;;;;;;5.37;100.00;99636.38;10841412;26;20162;-73
2024/04/16 05:53:53;;;;;;;9.05;5.93;;;;;;;5.46;100.00;99633.72;10864420;26;20016;-72
2024/04/16 05:58:50;;;;;;;9.43;6.60;;;;;;;5.54;100.00;99641.09;10850048;26;20449;-72
2024/04/16 06:03:47;;;;;;;7.72;6.45;;;;;;;5.56;100.00;99636.16;10858367;26;20009;-72
2024/04/16 06:08:44;;;;;;;10.00;6.47;;;;;;;5.57;100.00;99643.22;10851156;26;19997;-72
2024/04/16 06:13:41;;;;;;;10.23;6.72;;;;;;;5.72;100.00;99646.63;10860842;26;20005;-72
2024/04/16 06:18:43;;;;;;;7.80;6.50;;;;;;;5.74;100.00;99652.56;10861456;26;20368;-73
2024/04/16 06:23:40;;;;;;;8.88;6.72;;;;;;;5.72;100.00;99646.63;10805023;26;20084;-72
2024/04/16 06:28:37;;;;;;;10.75;6.20;;;;;;;5.70;100.00;99661.28;10838955;26;20040;-73
2024/04/16 06:33:37;;;;;;;8.55;5.88;;;;;;;5.61;100.00;99656.94;10811977;26;20021;-72
2024/04/16 06:38:34;;;;;;;6.82;5.32;;;;;;;5.42;100.00;99649.00;10843752;26;20331;-72
2024/04/16 06:43:31;;;;;;;7.00;5.65;;;;;;;5.59;100.00;99654.56;10811947;26;20045;-72
2024/04/16 06:48:30;;;;;;;6.75;5.85;;;;;;;5.74;100.00;99668.81;10773090;26;20017;-72
2024/04/16 06:53:27;;;;;;;7.03;5.60;;;;;;;5.78;100.00;99672.50;10842898;26;20076;-72
2024/04/16 06:58:25;;;;;;;6.82;5.90;;;;;;;5.73;100.00;99670.72;10797136;26;20248;-73
2024/04/16 07:03:22;;;;;;;8.50;5.90;;;;;;;5.95;100.00;99669.91;10795895;26;20071;-72
2024/04/16 07:08:20;;;;;;;7.65;6.82;;;;;;;6.21;100.00;99680.06;10834770;26;20523;-72
2024/04/16 07:13:17;;;;;;;8.30;6.95;;;;;;;6.19;100.00;99685.00;10804434;26;20010;-72
2024/04/16 07:18:16;;;;;;;8.68;6.53;;;;;;;6.37;100.00;99689.38;10791415;26;20446;-72
2024/04/16 07:23:13;;;;;;;9.02;6.70;;;;;;;6.36;100.00;99698.66;10764641;26;20017;-73
2024/04/16 07:28:10;;;;;;;8.30;6.95;;;;;;;6.31;100.00;99701.50;10829510;26;20006;-72
2024/04/16 07:33:09;;;;;;;8.73;7.43;;;;;;;6.50;100.00;99710.22;10822588;26;20005;-73
2024/04/16 07:38:06;;;;;;;11.50;8.25;;;;;;;6.46;100.00;99720.09;10780678;26;20338;-72
2024/04/16 07:43:03;;;;;;;9.93;8.23;;;;;;;6.52;100.00;99716.13;10839238;26;20004;-72
2024/04/16 07:48:01;;;;;;;17.23;7.20;;;;;;;6.51;100.00;99722.66;10847338;26;20001;-72
2024/04/16 07:52:58;;;;;;;10.82;8.02;;;;;;;6.50;100.00;99733.84;10854383;26;20005;-72
2024/04/16 07:57:56;;;;;;;8.77;7.72;;;;;;;6.34;100.00;99738.91;10843006;26;20075;-72
2024/04/16 08:02:53;;;;;;;11.73;7.88;;;;;;;6.36;100.00;99742.09;10834658;26;20009;-73
2024/04/16 08:07:50;;;;;;;13.13;7.75;;;;;;;6.47;100.00;99765.13;10846600;26;20019;-72
2024/04/16 08:12:47;;;;;;;11.35;7.93;;;;;;;6.74;100.00;99758.69;10853979;26;20005;-73
2024/04/16 08:17:44;;;;;;;12.85;8.38;;;;;;;6.71;100.00;99758.53;10827189;26;20342;-71
2024/04/16 08:22:42;;;;;;;10.60;8.40;;;;;;;6.80;100.00;99767.50;10817838;26;20464;-72
2024/04/16 08:27:39;;;;;;;10.35;8.30;;;;;;;7.00;100.00;99765.28;10827672;26;20413;-72
2024/04/16 08:32:36;;;;;;;8.30;7.40;;;;;;;7.11;100.00;99767.38;10801565;26;20149;-73
2024/04/16 08:37:33;;;;;;;13.73;8.95;;;;;;;7.22;100.00;99778.78;10792448;26;20020;-72
2024/04/16 08:42:31;;;;;;;9.20;7.32;;;;;;;7.13;100.00;99777.97;10794950;26;21763;-72
2024/04/16 08:47:29;;;;;;;17.30;8.73;;;;;;;7.23;100.00;99780.34;10828903;26;20379;-72
2024/04/16 08:52:27;;;;;;;15.05;8.35;;;;;;;7.43;100.00;99789.03;10806141;26;20028;-72
2024/04/16 08:57:26;;;;;;;13.38;8.70;;;;;;;7.33;100.00;99788.22;10781982;26;20029;-72
2024/04/16 09:02:26;;;;;;;10.90;8.35;;;;;;;7.71;100.00;99795.75;10770009;26;20018;-72
2024/04/16 09:07:24;;;;;;;12.48;10.68;;;;;;;7.57;100.00;99801.34;10752351;26;20006;-72
2024/04/16 09:12:22;;;;;;;13.27;9.55;;;;;;;7.62;100.00;99797.66;10813531;26;20002;-72
2024/04/16 09:17:19;;;;;;;11.27;9.70;;;;;;;7.40;100.00;99803.25;10861683;26;21266;-72
2024/04/16 09:22:17;;;;;;;15.07;9.38;;;;;;;7.81;100.00;99805.50;10824802;26;20356;-73
2024/04/16 09:27:15;;;;;;;12.85;9.02;;;;;;;7.77;100.00;99816.25;10775790;26;20087;-72
2024/04/16 09:32:12;;;;;;;11.25;8.40;;;;;;;7.72;100.00;99821.81;10829985;26;20096;-72
2024/04/16 09:37:09;;;;;;;12.60;7.85;;;;;;;8.25;100.00;99827.22;10864881;26;20015;-72
2024/04/16 09:42:07;;;;;;;9.10;6.35;;;;;;;8.20;100.00;99834.44;10860011;26;20679;-71
2024/04/16 09:47:05;;;;;;;10.77;6.22;;;;;;;8.10;100.00;99829.34;10859137;26;20514;-72
2024/04/16 09:52:04;;;;;;;6.53;5.82;;;;;;;8.21;100.00;99830.59;10853882;26;20024;-72
2024/04/16 09:57:04;;;;;;;10.05;6.57;;;;;;;7.98;100.00;99840.06;10857434;26;20012;-71
2024/04/16 10:02:03;;;;;;;8.43;6.85;;;;;;;7.63;100.00;99845.50;10864456;26;20079;-72
2024/04/16 10:07:00;;;;;;;8.45;7.50;;;;;;;7.76;100.00;99858.16;10844459;26;20336;-71
2024/04/16 10:11:59;;;;;;;7.05;6.07;;;;;;;8.40;100.00;99853.94;10849229;26;20071;-72
2024/04/16 10:16:56;;;;;;;10.43;7.10;;;;;;;8.43;100.00;99856.84;10850475;26;20547;-72
2024/04/16 10:21:53;;;;;;;7.78;5.60;;;;;;;8.73;100.00;99851.47;10845925;26;20021;-72
2024/04/16 10:26:50;;;;;;;10.75;7.43;;;;;;;8.80;100.00;99861.88;10833115;26;20016;-72
2024/04/16 10:31:51;;;;;;;7.57;6.03;;;;;;;9.19;100.00;99865.34;10840888;26;20017;-72
2024/04/16 10:36:50;;;;;;;7.30;5.82;;;;;;;8.98;100.00;99868.84;10797348;26;20016;-72
2024/04/16 10:41:54;;;;;;;5.40;4.90;;;;;;;9.18;100.00;99866.50;10809338;26;20005;-72
2024/04/16 10:46:53;;;;;;;6.50;5.33;;;;;;;9.33;100.00;99879.59;10818478;26;20129;-72
2024/04/16 10:51:51;;;;;;;8.98;4.95;;;;;;;9.48;100.00;99872.75;10782332;26;20397;-72
2024/04/16 10:56:50;;;;;;;6.35;4.75;;;;;;;9.57;100.00;99878.16;10788599;26;20006;-71
2024/04/16 11:01:48;;;;;;;7.13;4.63;;;;;;;9.50;100.00;99877.88;10790674;26;20344;-72
2024/04/16 11:06:46;;;;;;;6.32;4.90;;;;;;;9.51;100.00;99884.91;10798628;26;20008;-72
2024/04/16 11:11:43;;;;;;;5.65;4.60;;;;;;;9.86;100.00;99890.94;10830721;26;20010;-72
2024/04/16 11:16:41;;;;;;;5.60;4.40;;;;;;;9.69;100.00;99891.88;10791053;26;20005;-72
2024/04/16 11:21:39;;;;;;;5.30;4.80;;;;;;;9.90;100.00;99895.41;10790603;26;20595;-72
2024/04/16 11:26:38;;;;;;;6.88;4.22;;;;;;;9.75;100.00;99895.19;10812572;26;20540;-72
2024/04/16 11:31:35;;;;;;;6.63;5.45;;;;;;;9.97;100.00;99902.25;10830950;26;20025;-72
2024/04/16 11:36:32;;;;;;;8.55;5.50;;;;;;;9.44;100.00;99908.06;10808403;26;20001;-72
2024/04/16 11:41:29;;;;;;;5.13;4.63;;;;;;;9.36;100.00;99921.78;10839281;26;20014;-72
2024/04/16 11:46:26;;;;;;;7.63;5.47;;;;;;;8.75;100.00;99938.34;10785176;26;20020;-72
2024/04/16 11:51:24;;;;;;;5.90;4.65;;;;;;;8.23;100.00;99959.03;10802831;26;22381;-72
2024/04/16 11:56:21;;;;;;;5.78;4.10;;;;;;;8.34;100.00;99969.63;10836619;26;20076;-71
2024/04/16 12:01:18;;;;;;;6.05;4.55;;;;;;;8.31;100.00;99975.72;10805938;26;20153;-72
2024/04/16 12:06:15;;;;;;;7.57;4.85;;;;;;;8.60;100.00;99973.16;10836029;26;20098;-71
2024/04/16 12:11:12;;;;;;;7.50;4.80;;;;;;;9.18;100.00;99981.06;10810270;26;20528;-71
2024/04/16 12:16:09;;;;;;;6.68;4.55;;;;;;;9.86;100.00;99976.41;10805259;26;20321;-72
2024/04/16 12:21:06;;;;;;;8.70;4.93;;;;;;;10.32;100.00;99977.34;10781852;26;20020;-71
2024/04/16 12:26:04;;;;;;;6.80;5.18;;;;;;;10.06;100.00;99971.28;10798809;26;20108;-71
2024/04/16 12:31:01;;;;;;;7.47;5.38;;;;;;;9.57;100.00;99979.13;10789452;26;20045;-72
2024/04/16 12:35:58;;;;;;;5.63;4.60;;;;;;;9.34;100.00;99995.75;10841447;26;20086;-72
2024/04/16 12:40:55;;;;;;;5.18;4.65;;;;;;;8.22;100.00;100017.38;10808779;26;20357;-71
2024/04/16 12:45:58;;;;;;;4.68;4.20;;;;;;;7.48;100.00;100039.09;10863611;26;20016;-72
2024/04/16 12:50:55;;;;;;;4.35;3.92;;;;;;;7.33;100.00;100043.84;10856803;26;20001;-71
2024/04/16 12:55:52;;;;;;;5.22;3.70;;;;;;;7.39;100.00;100058.09;10842690;26;20472;-72
2024/04/16 13:00:50;;;;;;;4.38;3.45;;;;;;;7.50;100.00;100061.38;10832776;26;20025;-71
2024/04/16 13:05:47;;;;;;;8.05;3.78;;;;;;;7.36;100.00;100062.25;10788500;26;20001;-72
2024/04/16 13:10:44;;;;;;;4.93;3.92;;;;;;;7.14;100.00;100070.44;10795678;26;20005;-71
2024/04/16 13:15:41;;;;;;;7.57;3.88;;;;;;;6.89;100.00;100075.41;10850243;26;20017;-72
2024/04/16 13:20:38;;;;;;;5.70;4.18;;;;;;;6.84;100.00;100075.50;10834221;26;20088;-71
2024/04/16 13:25:35;;;;;;;4.70;4.25;;;;;;;6.72;100.00;100083.41;10783628;26;20005;-71
2024/04/16 13:30:34;;;;;;;3.65;3.35;;;;;;;6.91;100.00;100077.78;10774597;26;20020;-71
2024/04/16 13:35:31;;;;;;;5.68;4.03;;;;;;;7.40;100.00;100077.94;10801825;26;20013;-71
2024/04/16 13:40:28;;;;;;;4.22;3.65;;;;;;;7.53;100.00;100087.94;10800075;26;20069;-71
2024/04/16 13:45:25;;;;;;;5.57;4.60;;;;;;;7.41;100.00;100090.44;10786402;26;20016;-71
2024/04/16 13:50:23;;;;;;;4.32;3.92;;;;;;;7.49;100.00;100100.53;10858330;26;20018;-71
2024/04/16 13:55:20;;;;;;;5.05;4.03;;;;;;;7.73;100.00;100095.56;10838646;26;20082;-72
2024/04/16 14:00:17;;;;;;;4.88;4.10;;;;;;;8.41;100.00;100098.00;10843576;26;20445;-72
2024/04/16 14:05:14;;;;;;;4.93;4.35;;;;;;;8.53;100.00;100103.63;10856411;26;20006;-72
2024/04/16 14:10:11;;;;;;;5.47;5.07;;;;;;;8.68;100.00;100109.72;10866845;26;20001;-72
2024/04/16 14:15:09;;;;;;;5.13;4.63;;;;;;;8.38;100.00;100117.69;10840995;26;20001;-73
2024/04/16 14:20:06;;;;;;;6.40;5.40;;;;;;;8.47;100.00;100115.81;10864848;26;20013;-72
2024/04/16 14:25:04;;;;;;;5.75;5.15;;;;;;;9.13;100.00;100125.78;10853765;26;20419;-72
2024/04/16 14:30:03;;;;;;;6.18;4.55;;;;;;;9.65;100.00;100131.94;10783431;26;20021;-72
2024/04/16 14:35:00;;;;;;;5.70;5.15;;;;;;;9.60;100.00;100131.31;10791825;26;20018;-72
2024/04/16 14:39:57;;;;;;;5.70;5.20;;;;;;;9.53;100.00;100139.19;10860385;26;19996;-72
2024/04/16 14:44:54;;;;;;;6.50;5.93;;;;;;;9.84;100.00;100139.75;10845323;26;20100;-72
2024/04/16 14:49:51;;;;;;;11.40;6.43;;;;;;;9.79;100.00;100148.09;10863206;26;20008;-72
2024/04/16 14:54:49;;;;;;;9.93;6.63;;;;;;;9.61;100.00;100146.56;10850045;26;20018;-71
2024/04/16 14:59:46;;;;;;;6.95;6.45;;;;;;;9.86;100.00;100158.50;10859272;26;20075;-72
2024/04/16 15:04:43;;;;;;;7.35;6.57;;;;;;;9.68;100.00;100163.25;10855090;26;20083;-72
2024/04/16 15:09:40;;;;;;;7.00;6.28;;;;;;;9.43;100.00;100182.06;10794480;26;20005;-72
2024/04/16 15:14:37;;;;;;;7.95;7.22;;;;;;;8.80;100.00;100188.97;10850765;26;20020;-72
2024/04/16 15:19:35;;;;;;;6.28;5.70;;;;;;;8.63;100.00;100200.63;10795012;26;20084;-72
2024/04/16 15:24:32;;;;;;;7.97;6.00;;;;;;;8.68;100.00;100207.84;10808183;26;20013;-72
2024/04/16 15:29:29;;;;;;;7.95;7.13;;;;;;;8.69;100.00;100209.47;10789530;26;20025;-72
2024/04/16 15:34:26;;;;;;;6.55;5.97;;;;;;;8.58;100.00;100209.75;10768236;26;20508;-72
2024/04/16 15:39:23;;;;;;;6.03;5.43;;;;;;;8.61;100.00;100214.59;10779157;26;20005;-71
2024/04/16 15:44:20;;;;;;;5.82;5.32;;;;;;;8.62;100.00;100220.84;10832640;26;20024;-73
2024/04/16 15:49:18;;;;;;;8.93;5.93;;;;;;;8.82;100.00;100216.72;10811433;26;19998;-72
2024/04/16 15:54:15;;;;;;;6.15;5.65;;;;;;;9.08;100.00;100222.19;10802369;26;20082;-72
2024/04/16 15:59:12;;;;;;;6.75;5.43;;;;;;;9.14;100.00;100225.56;10816411;26;20353;-72
2024/04/16 16:04:09;;;;;;;6.82;5.70;;;;;;;9.18;100.00;100224.59;10848089;26;20087;-72
2024/04/16 16:09:06;;;;;;;7.38;5.55;;;;;;;9.10;100.00;100230.03;10816233;26;20016;-74
2024/04/16 16:14:03;;;;;;;6.97;6.07;;;;;;;9.10;100.00;100235.50;10786125;26;20458;-72
2024/04/16 16:19:00;;;;;;;6.20;5.60;;;;;;;9.73;100.00;100258.63;10788276;26;20009;-72
2024/04/16 16:23:58;;;;;;;8.73;5.70;;;;;;;10.77;100.00;100245.75;10827699;26;20002;-70
2024/04/16 16:28:55;;;;;;;6.53;5.72;;;;;;;10.01;100.00;100253.59;10801713;26;20516;-70
2024/04/16 16:33:52;;;;;;;7.40;5.78;;;;;;;11.34;100.00;100250.66;10799387;26;20009;-71
2024/04/16 16:38:49;;;;;;;8.85;6.63;;;;;;;11.57;100.00;100240.97;10790344;26;20050;-71
2024/04/16 16:43:46;;;;;;;7.97;6.78;;;;;;;12.28;100.00;100241.88;10832892;26;20016;-73
2024/04/16 16:48:44;;;;;;;6.50;5.90;;;;;;;13.28;100.00;100248.94;10848103;26;20005;-73
2024/04/16 16:53:41;;;;;;;8.27;6.28;;;;;;;14.23;100.00;100254.69;10835941;26;20009;-76
2024/04/16 16:58:38;;;;;;;7.68;5.85;;;;;;;14.13;100.00;100246.94;10835248;26;20082;-74
2024/04/16 17:03:35;;;;;;;7.85;6.65;;;;;;;14.21;100.00;100262.50;10859715;26;20078;-74
2024/04/16 17:08:32;;;;;;;7.53;6.63;;;;;;;13.58;100.00;100258.44;10844929;26;20019;-75
2024/04/16 17:13:30;;;;;;;6.82;6.20;;;;;;;12.35;100.00;100258.56;10802755;26;20006;-74
2024/04/16 17:18:27;;;;;;;9.30;7.15;;;;;;;11.33;100.00;100274.50;10809316;26;20012;-74
2024/04/16 17:23:24;;;;;;;7.45;6.72;;;;;;;10.73;100.00;100279.22;10808239;26;20541;-73
2024/04/16 17:28:22;;;;;;;8.00;7.20;;;;;;;10.20;100.00;100288.72;10777210;26;20454;-74
2024/04/16 17:33:21;;;;;;;9.80;7.80;;;;;;;9.77;100.00;100297.81;10788262;26;20003;-74
2024/04/16 17:38:18;;;;;;;10.50;7.97;;;;;;;9.45;100.00;100302.63;10825789;26;20010;-75
2024/04/16 17:43:15;;;;;;;7.80;7.03;;;;;;;9.24;100.00;100309.81;10791333;26;20093;-73
2024/04/16 17:48:12;;;;;;;9.93;7.53;;;;;;;9.02;100.00;100322.44;10757972;26;20021;-73
2024/04/16 17:53:10;;;;;;;11.18;7.30;;;;;;;8.94;100.00;100331.41;10771594;26;20020;-74
2024/04/16 17:58:07;;;;;;;16.33;7.90;;;;;;;8.92;100.00;100328.19;10811734;26;20064;-74
2024/04/16 18:03:06;;;;;;;10.15;6.93;;;;;;;9.05;100.00;100337.34;10796188;26;20006;-75
2024/04/16 18:08:04;;;;;;;6.88;6.20;;;;;;;8.89;100.00;100352.53;10759881;26;20345;-74
2024/04/16 18:13:01;;;;;;;8.48;5.75;;;;;;;8.77;100.00;100364.03;10830357;26;20022;-74
2024/04/16 18:18:00;;;;;;;11.77;6.90;;;;;;;8.69;100.00;100362.09;10800608;26;20083;-74
2024/04/16 18:22:57;;;;;;;9.63;5.90;;;;;;;8.81;100.00;100375.94;10766083;26;20083;-73
2024/04/16 18:27:55;;;;;;;8.25;5.65;;;;;;;8.81;100.00;100386.84;10765402;26;20412;-73
2024/04/16 18:32:52;;;;;;;9.38;6.05;;;;;;;8.57;100.00;100393.47;10749906;26;20010;-73
2024/04/16 18:37:49;;;;;;;6.22;5.63;;;;;;;8.25;100.00;100390.97;10771865;26;20010;-73
2024/04/16 18:42:46;;;;;;;5.50;5.10;;;;;;;8.05;100.00;100392.25;10788106;26;20106;-74
2024/04/16 18:47:44;;;;;;;7.13;6.40;;;;;;;8.01;100.00;100392.09;10793660;26;20020;-73
2024/04/16 18:52:43;;;;;;;7.22;5.38;;;;;;;8.00;100.00;100394.00;10767460;26;20001;-73
2024/04/16 18:57:40;;;;;;;6.97;5.28;;;;;;;7.78;100.00;100400.22;10773206;26;20020;-74
2024/04/16 19:02:43;;;;;;;7.57;6.28;;;;;;;7.97;100.00;100423.75;10781244;26;20017;-74
2024/04/16 19:07:40;;;;;;;5.97;5.38;;;;;;;7.98;100.00;100417.19;10795919;26;20008;-73
2024/04/16 19:12:40;;;;;;;6.20;5.35;;;;;;;7.93;100.00;100426.28;10820126;26;20080;-73
2024/04/16 19:17:38;;;;;;;7.68;5.43;;;;;;;7.77;100.00;100435.91;10771407;26;20106;-73
2024/04/16 19:22:35;;;;;;;6.95;5.85;;;;;;;7.77;100.00;100453.06;10811700;26;20052;-73
2024/04/16 19:27:33;;;;;;;8.65;5.05;;;;;;;7.88;100.00;100458.28;10804022;26;20005;-72
2024/04/16 19:32:31;;;;;;;8.65;5.00;;;;;;;7.83;100.00;100461.91;10787131;26;20587;-73
2024/04/16 19:37:28;;;;;;;5.53;5.00;;;;;;;7.73;100.00;100468.38;10774354;26;20465;-73
2024/04/16 19:42:27;;;;;;;8.43;5.60;;;;;;;7.52;100.00;100472.59;10775981;26;20436;-73
2024/04/16 19:47:26;;;;;;;5.55;5.05;;;;;;;7.58;100.00;100465.97;10759816;26;20041;-73
2024/04/16 19:52:23;;;;;;;6.40;5.47;;;;;;;7.58;100.00;100474.13;10824263;26;20001;-74
2024/04/16 19:57:21;;;;;;;6.05;5.30;;;;;;;7.50;100.00;100480.28;10810799;26;20425;-73
2024/04/16 20:02:18;;;;;;;5.65;4.82;;;;;;;7.63;100.00;100484.91;10781867;26;20084;-75
2024/04/16 20:07:15;;;;;;;7.38;5.43;;;;;;;7.53;100.00;100496.00;10790054;26;20013;-73
2024/04/16 20:12:13;;;;;;;6.68;5.28;;;;;;;7.38;100.00;100489.75;10788765;26;20005;-73
2024/04/16 20:17:10;;;;;;;5.72;5.13;;;;;;;7.51;100.00;100496.28;10767300;26;20095;-74
2024/04/16 20:22:07;;;;;;;5.88;5.28;;;;;;;7.43;100.00;100496.22;10784767;26;20002;-73
2024/04/16 20:27:04;;;;;;;9.27;5.65;;;;;;;7.47;100.00;100502.66;10767098;26;20018;-73
2024/04/16 20:32:01;;;;;;;11.10;7.38;;;;;;;7.43;100.00;100507.91;10774936;26;20002;-73
2024/04/16 20:36:59;;;;;;;8.68;6.30;;;;;;;7.32;100.00;100518.16;10792932;26;20010;-71
2024/04/16 20:41:56;;;;;;;6.35;5.10;;;;;;;7.30;100.00;100525.81;10813450;26;20012;-71
2024/04/16 20:46:53;;;;;;;9.10;5.30;;;;;;;7.03;100.00;100528.47;10853342;26;20005;-72
2024/04/16 20:51:51;;;;;;;5.68;5.10;;;;;;;7.05;100.00;100528.97;10849218;26;20481;-72
2024/04/16 20:56:48;;;;;;;6.82;5.57;;;;;;;7.01;100.00;100539.66;10858245;26;20467;-70
2024/04/16 21:01:45;;;;;;;6.63;5.93;;;;;;;6.74;100.00;100538.44;10845307;26;20083;-70
2024/04/16 21:06:43;;;;;;;6.00;4.88;;;;;;;6.63;100.00;100545.16;10812906;26;20538;-71
2024/04/16 21:11:40;;;;;;;5.88;5.15;;;;;;;6.69;100.00;100540.47;10842651;26;20083;-72
2024/04/16 21:16:37;;;;;;;6.40;4.95;;;;;;;6.70;100.00;100550.22;10819656;26;20090;-71
2024/04/16 21:21:34;;;;;;;5.63;5.03;;;;;;;6.69;100.00;100559.47;10813453;26;20234;-73
2024/04/16 21:26:31;;;;;;;10.60;6.10;;;;;;;6.61;100.00;100560.13;10787168;26;20045;-72
2024/04/16 21:31:28;;;;;;;7.95;4.95;;;;;;;6.50;100.00;100563.00;10788077;26;20009;-72
2024/04/16 21:36:25;;;;;;;6.85;4.72;;;;;;;6.41;100.00;100570.19;10821383;26;20087;-73
2024/04/16 21:41:23;;;;;;;6.18;5.35;;;;;;;6.46;100.00;100578.28;10751675;26;20822;-72
2024/04/16 21:46:21;;;;;;;5.75;4.72;;;;;;;6.50;100.00;100576.59;10784306;26;20002;-72
2024/04/16 21:51:18;;;;;;;8.57;4.80;;;;;;;6.33;100.00;100579.00;10786248;26;20009;-72
2024/04/16 21:56:15;;;;;;;6.78;4.75;;;;;;;6.26;100.00;100583.97;10801737;26;20085;-74
2024/04/16 22:01:12;;;;;;;5.80;4.90;;;;;;;6.25;100.00;100587.81;10790549;26;20009;-72
2024/04/16 22:06:10;;;;;;;8.85;5.75;;;;;;;6.16;100.00;100595.00;10833963;26;20005;-72
2024/04/16 22:11:07;;;;;;;7.95;5.25;;;;;;;6.11;100.00;100604.81;10785363;26;20006;-72
2024/04/16 22:16:04;;;;;;;7.20;4.75;;;;;;;6.24;100.00;100607.91;10780255;26;20009;-72
2024/04/16 22:21:02;;;;;;;7.00;5.15;;;;;;;6.12;100.00;100597.47;10792727;26;20014;-72
2024/04/16 22:26:06;;;;;;;9.23;5.10;;;;;;;6.30;100.00;100612.16;10797985;26;19997;-71
2024/04/16 22:31:05;;;;;;;7.95;5.50;;;;;;;6.22;100.00;100613.63;10835212;26;20022;-72
2024/04/16 22:36:02;;;;;;;5.63;4.95;;;;;;;6.33;100.00;100617.00;10766266;26;20016;-73
2024/04/16 22:40:59;;;;;;;9.60;5.07;;;;;;;6.42;100.00;100620.69;10776840;26;20009;-73
2024/04/16 22:45:57;;;;;;;7.10;5.43;;;;;;;6.32;100.00;100616.22;10800656;26;20006;-73
2024/04/16 22:50:54;;;;;;;7.93;6.18;;;;;;;6.21;100.00;100630.22;10851257;26;20001;-73
2024/04/16 22:55:52;;;;;;;8.63;6.03;;;;;;;6.24;100.00;100635.03;10802660;26;20461;-74